Latest Weather Observations for Hartz Mountains

IDT60801

Issued at 2:21 pm EDT Wednesday 20 January 2021 (issued every 10 minutes, with the page automatically refreshed every 10 minutes)

About weather observations | Map of weather stations | Latest weather observations for TAS | Other Formats
Station Details ID: 094191 Name: HARTZ MOUNTAIN (KEOGHS PIMPLE) Lat: -43.20 Lon: 146.77 Height: 831.0 m
Data from the previous 72 hours. | See also: Recent months at Hartz Mountains
Date/Time
EDT
Temp
°C
App
Temp
°C
Dew
Point
°C
Rel
Hum
%
Delta-T
°C
Wind Press
QNH
hPa
Press
MSL
hPa
Rain since
9am
mm
Dir  Spd
km/h
Gust
km/h
Spd
kts
Gust
kts
20/02:00pm 15.5 11.2 8.0 61 3.9 WSW 20 32 11 17 - - 0.0
20/01:30pm 14.2 9.0 5.6 56 4.3 WSW 22 33 12 18 - - 0.0
20/01:00pm 13.3 7.3 5.5 59 3.8 WSW 26 37 14 20 - - 0.0
20/12:30pm 13.2 7.4 4.6 56 4.1 WSW 24 32 13 17 - - 0.0
20/12:00pm 11.7 6.0 5.1 64 3.2 WSW 24 35 13 19 - - 0.0
20/11:30am 11.1 6.8 5.4 68 2.7 WSW 17 24 9 13 - - 0.0
20/11:00am 9.2 3.2 3.2 66 2.7 WSW 24 37 13 20 - - 0.0
20/10:30am 7.9 1.0 2.6 69 2.3 SW 28 39 15 21 - - 0.0
20/10:00am 8.0 1.7 3.8 75 1.9 WSW 26 43 14 23 - - 0.0
20/09:30am 6.5 -1.3 2.8 77 1.6 WSW 33 43 18 23 - - 0.0
20/09:00am 5.4 -3.5 2.8 83 1.1 WSW 39 46 21 25 - - 0.4
20/08:30am 4.7 -4.0 2.2 84 1.1 WSW 37 43 20 23 - - 0.4
20/08:00am 4.4 -3.9 2.1 85 1.0 WSW 35 44 19 24 - - 0.4
20/07:30am 3.8 -4.2 1.8 87 0.8 WSW 33 43 18 23 - - 0.4
20/07:00am 3.3 -4.7 1.7 89 0.7 WSW 33 41 18 22 - - 0.4
20/06:30am 2.9 -4.9 1.7 92 0.5 WSW 32 41 17 22 - - 0.4
20/06:00am 2.9 -4.5 1.7 92 0.5 WSW 30 39 16 21 - - 0.4
20/05:30am 2.7 -4.4 1.5 92 0.5 WSW 28 43 15 23 - - 0.4
20/05:00am 2.6 -3.3 1.4 92 0.5 WSW 22 37 12 20 - - 0.4
20/04:30am 2.7 -4.0 1.4 91 0.5 WSW 26 37 14 20 - - 0.4
20/04:00am 2.8 -3.1 1.6 92 0.5 WSW 22 33 12 18 - - 0.4
20/03:30am 2.7 -2.9 1.5 92 0.5 WSW 20 35 11 19 - - 0.4
20/03:00am 2.7 -3.6 1.4 91 0.5 WSW 24 35 13 19 - - 0.4
20/02:30am 2.8 -5.3 1.3 90 0.6 SW 33 44 18 24 - - 0.4
20/02:00am 2.8 -6.4 1.2 89 0.6 SW 39 46 21 25 - - 0.4
20/01:30am 2.8 -6.8 1.2 89 0.6 WSW 41 48 22 26 - - 0.4
20/01:00am 2.8 -7.8 1.0 88 0.7 WSW 46 54 25 29 - - 0.4
20/12:30am 2.6 -7.0 1.0 89 0.6 WSW 41 48 22 26 - - 0.4
20/12:00am 2.9 -6.7 1.0 87 0.8 WSW 41 48 22 26 - - 0.4
 
Date/Time
EDT
Temp
°C
App
Temp
°C
Dew
Point
°C
Rel
Hum
%
Delta-T
°C
Wind Press
QNH
hPa
Press
MSL
hPa
Rain since
9am
mm
Dir  Spd
km/h
Gust
km/h
Spd
kts
Gust
kts
19/11:30pm 2.9 -6.0 1.0 87 0.8 WSW 37 44 20 24 - - 0.4
19/11:00pm 3.0 -5.4 1.4 89 0.7 WSW 35 46 19 25 - - 0.4
19/10:30pm 3.0 -4.8 1.5 90 0.6 WSW 32 41 17 22 - - 0.4
19/10:00pm 3.3 -4.6 1.3 87 0.8 SW 32 44 17 24 - - 0.4
19/09:30pm 3.5 -5.0 1.2 85 0.9 SW 35 46 19 25 - - 0.4
19/09:00pm 3.6 -4.2 1.5 86 0.9 WSW 32 43 17 23 - - 0.4
19/08:30pm 4.0 -4.0 1.4 83 1.1 WSW 33 44 18 24 - - 0.4
19/08:00pm 4.9 -3.0 1.2 77 1.5 WSW 32 48 17 26 - - 0.4
19/07:30pm 4.9 -2.6 1.4 78 1.5 WSW 30 41 16 22 - - 0.4
19/07:00pm 5.3 -2.1 1.6 77 1.6 SW 30 43 16 23 - - 0.4
19/06:41pm 5.7 -1.7 2.0 77 1.6 WSW 30 48 16 26 - - 0.4
19/06:30pm 5.7 -2.6 2.2 78 1.5 WSW 35 46 19 25 - - 0.4
19/06:00pm 6.8 -1.5 2.3 73 2.0 WSW 35 48 19 26 - - 0.4
19/05:35pm 7.4 -0.6 3.6 77 1.7 WSW 35 54 19 29 - - 0.4
19/05:30pm 6.6 -2.5 1.9 72 2.0 WSW 39 56 21 30 - - 0.4
19/05:27pm 7.0 -1.7 2.1 71 2.1 WSW 37 56 20 30 - - 0.4
19/05:00pm 6.7 -4.1 2.0 72 2.0 WSW 48 61 26 33 - - 0.4
19/04:51pm 6.5 -3.3 2.4 75 1.8 WSW 43 61 23 33 - - 0.4
19/04:30pm 6.7 -3.4 1.6 70 2.2 WSW 44 57 24 31 - - 0.4
19/04:00pm 7.0 -2.1 1.9 70 2.2 WSW 39 61 21 33 - - 0.4
19/03:30pm 7.4 -2.3 3.1 74 1.9 WSW 43 61 23 33 - - 0.4
19/03:00pm 6.9 -4.1 1.0 66 2.5 SW 48 69 26 37 - - 0.4
19/02:30pm 8.2 -2.4 1.1 61 3.0 WSW 46 67 25 36 - - 0.4
19/02:03pm 7.1 -4.4 -0.4 59 3.1 WSW 50 69 27 37 - - 0.4
19/02:00pm 7.3 -4.1 0.7 63 2.8 WSW 50 65 27 35 - - 0.4
19/01:30pm 6.5 -4.0 1.6 71 2.1 WSW 46 65 25 35 - - 0.4
19/01:10pm 5.9 -2.9 1.4 73 1.9 WSW 37 59 20 32 - - 0.4
19/01:00pm 6.2 -2.7 3.0 80 1.4 WSW 39 54 21 29 - - 0.2
19/12:30pm 5.9 -2.7 2.4 78 1.5 WSW 37 56 20 30 - - 0.2
19/12:03pm 4.9 -4.0 2.8 86 0.9 SW 39 57 21 31 - - 0.2
19/12:00pm 4.8 -4.6 2.5 85 1.0 SW 41 57 22 31 - - 0.2
19/11:30am 4.0 -6.3 2.7 91 0.6 SW 46 65 25 35 - - 0.2
19/11:08am 3.4 -4.9 2.4 93 0.4 WSW 35 54 19 29 - - 0.2
19/11:00am 3.8 -4.8 2.8 93 0.4 WSW 37 54 20 29 - - 0.2
19/10:32am 3.4 -7.7 2.4 93 0.4 SW 50 69 27 37 - - 0.2
19/10:30am 3.0 -8.6 2.0 93 0.4 SW 52 69 28 37 - - 0.2
19/10:00am 3.7 -6.3 1.1 83 1.1 SW 43 69 23 37 - - 0.0
19/09:30am 2.5 -8.0 1.5 93 0.4 SW 46 67 25 36 - - 0.0
19/09:28am 2.4 -7.7 1.4 93 0.4 SW 44 63 24 34 - - 0.0
19/09:00am 3.0 -8.0 0.4 83 1.0 SW 48 63 26 34 - - 1.0
19/08:30am 2.4 -10.5 -0.4 82 1.1 SW 57 78 31 42 - - 1.0
19/08:18am 2.0 -9.8 0.2 88 0.7 SW 52 70 28 38 - - 1.0
19/08:08am 1.9 -10.2 0.7 92 0.5 SW 54 72 29 39 - - 1.0
19/08:00am 1.9 -7.7 1.3 96 0.2 SW 41 65 22 35 - - 1.0
19/07:30am 1.7 -8.3 1.0 95 0.3 SW 43 63 23 34 - - 1.0
19/07:29am 1.7 -8.3 1.0 95 0.3 SW 43 61 23 33 - - 1.0
19/07:23am 1.6 -8.4 0.7 94 0.4 SW 43 61 23 33 - - 1.0
19/07:00am 1.8 -10.9 0.5 91 0.5 SW 57 89 31 48 - - 0.8
19/06:48am 1.7 -10.1 0.7 93 0.4 SW 52 96 28 52 - - 0.8
19/06:30am 1.7 -10.4 0.7 93 0.4 SW 54 74 29 40 - - 0.8
19/06:00am 1.6 -11.9 0.6 93 0.4 SW 61 89 33 48 - - 0.8
19/05:46am 1.4 -11.1 0.5 94 0.4 SW 56 89 30 48 - - 0.8
19/05:30am 1.6 -9.9 -0.3 87 0.7 SW 50 69 27 37 - - 0.8
19/05:00am 1.8 -10.5 -0.4 85 0.8 WSW 54 76 29 41 - - 0.8
19/04:30am 1.4 -12.2 -0.5 87 0.7 SW 61 80 33 43 - - 0.8
19/04:00am 1.7 -11.1 0.4 91 0.5 SW 57 80 31 43 - - 0.8
19/03:30am 1.6 -10.6 0.6 93 0.4 WSW 54 74 29 40 - - 0.8
19/03:00am 1.6 -8.5 0.4 92 0.5 WSW 43 72 23 39 - - 0.8
19/02:41am 1.8 -7.6 0.2 89 0.6 WSW 39 57 21 31 - - 0.6
19/02:30am 2.0 -7.3 0.4 89 0.6 WSW 39 56 21 30 - - 0.6
19/02:00am 2.1 -6.9 -0.2 85 0.9 WSW 37 59 20 32 - - 0.6
19/01:30am 1.8 -6.8 -0.1 87 0.7 WSW 35 57 19 31 - - 0.6
19/01:00am 2.0 -8.3 0.4 89 0.6 WSW 44 65 24 35 - - 0.6
19/12:30am 1.9 -8.3 0.7 92 0.5 SW 44 65 24 35 - - 0.6
19/12:03am 1.8 -7.9 0.2 89 0.6 WSW 41 69 22 37 - - 0.6
19/12:00am 2.0 -8.1 0.1 87 0.7 WSW 43 57 23 31 - - 0.6
 
Date/Time
EDT
Temp
°C
App
Temp
°C
Dew
Point
°C
Rel
Hum
%
Delta-T
°C
Wind Press
QNH
hPa
Press
MSL
hPa
Rain since
9am
mm
Dir  Spd
km/h
Gust
km/h
Spd
kts
Gust
kts
18/11:30pm 1.7 -8.6 0.2 90 0.6 WSW 44 69 24 37 - - 0.6
18/11:00pm 1.8 -8.4 0.9 94 0.4 WSW 44 65 24 35 - - 0.6
18/10:30pm 1.7 -8.9 0.8 94 0.4 WSW 46 72 25 39 - - 0.6
18/10:00pm 2.0 -8.1 1.3 95 0.3 WSW 44 78 24 42 - - 0.6
18/09:30pm 2.1 -9.5 1.4 95 0.3 WSW 52 72 28 39 - - 0.6
18/09:00pm 2.4 -9.2 1.5 94 0.4 SW 52 85 28 46 - - 0.6
18/08:30pm 2.7 -9.6 1.8 94 0.4 WSW 56 74 30 40 - - 0.4
18/08:00pm 2.7 -11.4 1.5 92 0.5 WSW 65 87 35 47 - - 0.4
18/07:30pm 3.4 -8.9 1.9 90 0.6 WSW 56 82 30 44 - - 0.4
18/07:00pm 4.6 -8.0 1.6 81 1.3 WSW 57 95 31 51 - - 0.4
18/06:56pm 4.7 -8.3 1.2 78 1.4 WSW 59 95 32 51 - - 0.4
18/06:54pm 4.7 -7.7 1.4 79 1.4 WSW 56 91 30 49 - - 0.4
18/06:53pm 4.7 -7.9 1.6 80 1.3 WSW 57 91 31 49 - - 0.4
18/06:39pm 4.8 -7.8 1.5 79 1.4 WSW 57 91 31 49 - - 0.4
18/06:30pm 4.5 -6.2 2.5 87 0.9 WSW 48 78 26 42 - - 0.4
18/06:29pm 4.4 -6.3 2.6 88 0.8 WSW 48 78 26 42 - - 0.4
18/06:00pm 5.4 -7.8 2.4 81 1.3 WSW 61 89 33 48 - - 0.4
18/05:44pm 5.8 -6.5 3.3 84 1.1 WSW 57 85 31 46 - - 0.4
18/05:43pm 5.8 -6.5 3.3 84 1.1 WSW 57 85 31 46 - - 0.4
18/05:30pm 6.5 -3.7 3.3 80 1.4 WSW 46 82 25 44 - - 0.4
18/05:00pm 7.1 -5.6 3.3 77 1.7 WSW 59 95 32 51 - - 0.4
18/04:32pm 8.0 -3.0 5.1 82 1.4 WSW 52 83 28 45 - - 0.4
18/04:31pm 7.8 -2.9 4.4 79 1.6 WSW 50 83 27 45 - - 0.4
18/04:30pm 7.9 -2.4 4.5 79 1.6 WSW 48 83 26 45 - - 0.4
18/04:25pm 7.9 -2.3 5.0 82 1.4 W 48 89 26 48 - - 0.4
18/04:00pm 8.0 -4.7 5.3 83 1.3 WSW 61 95 33 51 - - 0.4
18/03:44pm 8.3 -2.5 6.1 86 1.1 WSW 52 111 28 60 - - 0.4
18/03:30pm 8.6 -1.2 7.2 91 0.7 WSW 48 78 26 42 - - 0.4
18/03:00pm 8.0 -2.9 7.2 95 0.4 W 54 95 29 51 - - 0.4
18/02:30pm 8.4 -1.3 7.6 95 0.4 W 48 95 26 51 - - 0.2
18/02:00pm 8.4 -3.3 7.8 96 0.3 WSW 59 106 32 57 - - 0.2
18/01:30pm 8.4 -4.1 7.5 94 0.4 WSW 63 93 34 50 - - 0.2
18/01:00pm 9.2 -1.0 8.4 95 0.4 WSW 52 87 28 47 - - 0.2
18/12:30pm 9.1 -1.1 8.5 96 0.3 W 52 93 28 50 - - 0.2
18/12:06pm 9.5 1.0 9.2 98 0.2 WSW 44 100 24 54 - - 0.2
18/12:00pm 9.2 0.6 8.9 98 0.2 WSW 44 82 24 44 - - 0.2
18/11:30am 8.8 -1.4 8.4 97 0.2 W 52 93 28 50 - - 0.2
18/11:01am 8.8 -2.2 8.5 98 0.2 W 56 106 30 57 - - 0.2
18/11:00am 9.0 -2.1 8.7 98 0.2 W 57 102 31 55 - - 0.2
18/10:59am 9.0 -2.1 8.7 98 0.2 W 57 102 31 55 - - 0.2
18/10:49am 8.7 -1.9 8.4 98 0.2 W 54 91 29 49 - - 0.2
18/10:35am 8.4 -1.9 8.1 98 0.2 W 52 98 28 53 - - 0.2
18/10:30am 8.2 -1.4 7.9 98 0.1 W 48 80 26 43 - - 0.2
18/10:01am 7.9 -0.4 7.6 98 0.1 W 41 85 22 46 - - 0.2
18/10:00am 7.9 -0.1 7.6 98 0.1 W 39 67 21 36 - - 0.2
18/09:30am 7.8 0.6 7.5 98 0.1 WNW 35 72 19 39 - - 0.0
18/09:08am 7.8 1.1 7.5 98 0.1 WSW 32 83 17 45 - - 0.0
18/09:00am 7.9 1.3 7.6 98 0.1 W 32 50 17 27 - - 5.6
18/08:30am 7.9 1.1 7.6 98 0.1 W 33 59 18 32 - - 5.6
18/08:02am 7.9 2.0 7.6 98 0.1 W 28 72 15 39 - - 5.6
18/08:00am 7.9 2.8 7.6 98 0.1 W 24 46 13 25 - - 5.4
18/07:30am 7.9 1.3 7.6 98 0.1 WSW 32 56 17 30 - - 5.4
18/07:00am 8.0 2.1 7.7 98 0.1 WSW 28 59 15 32 - - 5.2
18/06:30am 8.1 0.6 7.8 98 0.1 WSW 37 67 20 36 - - 5.0
18/06:21am 8.0 1.2 7.7 98 0.1 WSW 33 67 18 36 - - 5.0
18/06:14am 8.0 2.1 7.7 98 0.1 WSW 28 48 15 26 - - 4.8
18/06:00am 8.0 2.1 7.7 98 0.1 WSW 28 44 15 24 - - 4.6
18/05:31am 8.0 2.1 7.7 98 0.1 WSW 28 52 15 28 - - 4.2
18/05:30am 8.1 2.7 7.8 98 0.1 WSW 26 52 14 28 - - 4.2
18/05:00am 8.0 3.7 7.7 98 0.1 WSW 20 39 11 21 - - 3.6
18/04:30am 8.0 3.7 7.7 98 0.1 W 20 46 11 25 - - 2.8
18/04:00am 8.0 2.9 7.7 98 0.1 W 24 50 13 27 - - 2.4
18/03:45am 8.0 1.8 7.7 98 0.1 W 30 63 16 34 - - 2.2
18/03:43am 8.0 2.1 7.7 98 0.1 W 28 63 15 34 - - 2.2
18/03:30am 7.9 2.0 7.6 98 0.1 W 28 50 15 27 - - 2.2
18/03:00am 7.9 -0.1 7.6 98 0.1 W 39 69 21 37 - - 2.2
18/02:30am 7.8 1.1 7.5 98 0.1 W 32 67 17 36 - - 2.2
18/02:00am 7.8 1.9 7.5 98 0.1 W 28 54 15 29 - - 2.0
18/01:30am 7.7 1.0 7.4 98 0.1 W 32 65 17 35 - - 2.0
18/01:11am 7.6 1.7 7.3 98 0.1 W 28 57 15 31 - - 1.8
18/01:00am 7.6 3.2 7.3 98 0.1 W 20 35 11 19 - - 1.6
18/12:30am 7.5 1.2 7.2 98 0.1 W 30 59 16 32 - - 1.4
18/12:04am 7.5 2.7 7.2 98 0.1 WSW 22 59 12 32 - - 1.2
18/12:00am 7.4 2.2 7.1 98 0.1 WSW 24 57 13 31 - - 1.2
 
Date/Time
EDT
Temp
°C
App
Temp
°C
Dew
Point
°C
Rel
Hum
%
Delta-T
°C
Wind Press
QNH
hPa
Press
MSL
hPa
Rain since
9am
mm
Dir  Spd
km/h
Gust
km/h
Spd
kts
Gust
kts
17/11:31pm 7.4 0.6 7.1 98 0.1 WSW 32 83 17 45 - - 1.2
17/11:30pm 7.3 0.5 7.0 98 0.1 WSW 32 61 17 33 - - 1.2
17/11:10pm 7.2 1.2 6.9 98 0.1 WSW 28 59 15 32 - - 1.2
17/11:00pm 7.3 2.4 7.0 98 0.1 WSW 22 44 12 24 - - 1.0
17/10:30pm 7.4 0.1 7.0 97 0.2 W 35 61 19 33 - - 1.0
17/10:00pm 7.3 0.3 6.9 97 0.2 WSW 33 65 18 35 - - 1.0
17/09:30pm 7.4 0.6 7.0 97 0.2 WSW 32 52 17 28 - - 1.0
17/09:07pm 7.6 1.6 7.2 97 0.2 W 28 48 15 26 - - 1.0
17/09:00pm 7.5 1.5 7.1 97 0.2 W 28 43 15 23 - - 1.0
17/08:30pm 7.5 0.5 6.9 96 0.3 W 33 67 18 36 - - 1.0
17/08:00pm 7.7 -0.4 7.1 96 0.3 W 39 74 21 40 - - 1.0
17/07:30pm 7.8 1.1 7.4 97 0.2 W 32 65 17 35 - - 1.0
17/07:00pm 8.1 0.9 7.7 97 0.2 W 35 59 19 32 - - 1.0
17/06:46pm 8.2 1.0 7.8 97 0.2 WSW 35 80 19 43 - - 1.0
17/06:30pm 8.4 2.6 8.1 98 0.2 W 28 54 15 29 - - 0.8
17/06:00pm 8.5 -0.3 8.2 98 0.2 W 44 83 24 45 - - 0.8
17/05:30pm 8.4 0.2 8.1 98 0.2 W 41 63 22 34 - - 0.8
17/05:00pm 8.3 -0.5 8.0 98 0.2 W 44 82 24 44 - - 0.8
17/04:30pm 8.2 0.7 7.9 98 0.1 W 37 83 20 45 - - 0.8
17/04:09pm 8.0 0.4 7.7 98 0.1 W 37 74 20 40 - - 0.8
17/04:00pm 8.1 0.2 7.8 98 0.1 W 39 72 21 39 - - 0.8
17/03:59pm 8.1 -0.2 7.8 98 0.1 W 41 72 22 39 - - 0.8
17/03:30pm 7.8 -1.9 7.5 98 0.1 WNW 48 80 26 43 - - 0.8
17/03:13pm 7.7 -1.3 7.4 98 0.1 W 44 80 24 43 - - 0.8
17/03:00pm 7.6 0.3 7.3 98 0.1 WNW 35 57 19 31 - - 0.8
17/02:30pm 7.1 -1.8 6.8 98 0.1 WNW 43 69 23 37 - - 0.6

Other formats

Comma delimited format used in spreadsheet applications
http://www.bom.gov.au/fwo/IDT60801/IDT60801.94977.axf

JavaScript Object Notation format (JSON) in row-major order
http://www.bom.gov.au/fwo/IDT60801/IDT60801.94977.json

Data quality

Most of these data are generated automatically and are frequently updated. Quality checks on data are not normally performed. It is possible for incorrect values to appear. Refer to information at About Latest Weather Observations and please check the disclaimer before using these data.